Nearby METAR Reports

 

KSJC - San Jose, California, USA
Distance from station: NO 14km
Uppdaterad: 14/07/2024 13:30
Haze, Övervägande molnigt
Haze, Övervägande molnigt
 Vind från NV
Vind: NV 6 km/h
Temperatur: 17°C
Daggpunkt: 14°C
Luftfuktighet: 83%
Barometer: 1015.6 hPa
Summering: Haze
Clouds: Övervägande molnigt
Visibility: 10 km
Cloud details: Övervägande molnigt 305 m
2024/07/14 11:30 KSJC 141130Z AUTO 31003KT 6SM HZ BKN010 17/14 A2999 RMK AO2 T01720139
KNUQ - Moffett Nas/Mtn, California, USA
Distance from station: N 14km
Uppdaterad: 14/07/2024 13:35
Genommulet
Genommulet
 Vind från N
Vind: N 9 km/h
Temperatur: 16°C
Daggpunkt: 14°C
Luftfuktighet: 88%
Barometer: 1015.6 hPa
Clouds: Genommulet
Visibility: 16 km
Cloud details: Genommulet 244 m
2024/07/14 11:35 KNUQ 141135Z AUTO 36005KT 10SM OVC008 16/14 A2999 RMK AO2
KPAO - Palo Alto, California, USA
Distance from station: NNV 23km
Uppdaterad: 14/07/2024 05:47
NOT Current
Haze, Övervägande molnigt
Haze, Övervägande molnigt
 Vind från NNV
Vind: NNV 20 km/h
Temperatur: 15°C
Daggpunkt: 15°C
Luftfuktighet: 100%
Barometer: 1014.6 hPa
Summering: Haze
Clouds: Övervägande molnigt
Visibility: 16 km
Cloud details: Övervägande molnigt 3048 m
2024/07/14 03:47 KPAO 140347Z 34011KT 10SM HZ BKN100 15/15 A2996 RMK LAST
 
KRHV - San Jose/Reid, California, USA
Distance from station: ONO 19km
Uppdaterad: 14/07/2024 06:55
NOT Current
Delvis molnigt
Delvis molnigt
 Vind från VNV
Vind: VNV 7 km/h
Temperatur: 21°C
Daggpunkt: 14°C
Luftfuktighet: 64%
Barometer: 1015.2 hPa
Clouds: Delvis molnigt
Visibility: 16 km
Cloud details: Delvis molnigt 2438 m
2024/07/14 04:55 KRHV 140455Z 30004KT 10SM SCT080 21/14 A2998 RMK LAST
KOAK - Oakland, California, USA
Distance from station: NNV 50km
Uppdaterad: 14/07/2024 12:53
Övervägande molnigt
Övervägande molnigt
 Vind från VNV
Vind: VNV 15 km/h
Temperatur: 16°C
Daggpunkt: 14°C
Luftfuktighet: 88%
Barometer: 1015.2 hPa
Clouds: Övervägande molnigt
Visibility: 16 km
Cloud details: Delvis molnigt 152 m
Övervägande molnigt 5486 m
2024/07/14 10:53 KOAK 141053Z 30008KT 10SM SCT005 BKN180 16/14 A2998 RMK AO2 SLP152 T01560144
KSQL - San Carlos Airpo, California, USA
Distance from station: NV 34km
Uppdaterad: 14/07/2024 13:35
Genommulet
Genommulet
 Vind från VNV
Vind: VNV 11 km/h
Temperatur: 16°C
Daggpunkt: 13°C
Luftfuktighet: 83%
Barometer: 1015.9 hPa
Clouds: Genommulet
Cloud details: Genommulet 366 m
2024/07/14 11:35 KSQL 141135Z AUTO 29006KT OVC012 16/13 A3000 RMK AO2
 
KSFO - San Francisco, California, USA
Distance from station: NV 49km
Uppdaterad: 14/07/2024 12:56
Övervägande molnigt
Övervägande molnigt
 Vind från NV
Vind: NV 7 km/h
Temperatur: 13°C
Daggpunkt: 12°C
Luftfuktighet: 94%
Barometer: 1015.2 hPa
Clouds: Övervägande molnigt
Visibility: 16 km
Cloud details: Few Clouds 213 m
Övervägande molnigt 6096 m
2024/07/14 10:56 KSFO 141056Z 31004KT 10SM FEW007 BKN200 13/12 A2998 RMK AO2 SLP150 T01330122
KE16 - San Martin, California, USA
Distance from station: OSO 43km
Uppdaterad: 14/07/2024 13:35
Övervägande molnigt
Övervägande molnigt
 Vind från SSO
Vind: SSO 9 km/h
Temperatur: 14°C
Daggpunkt: 13°C
Luftfuktighet: 94%
Barometer: 1016.6 hPa
Clouds: Övervägande molnigt
Visibility: 16 km
Cloud details: Övervägande molnigt 152 m
2024/07/14 11:35 KE16 141135Z AUTO 15005KT 10SM BKN005 14/13 A3002 RMK AO2 PWINO PNO
KWVI - Watsonville, California, USA
Distance from station: SSO 44km
Uppdaterad: 14/07/2024 13:33
Mist, Genommulet
Mist, Genommulet
 Vind från VSV
Vind: VSV 7 km/h
Temperatur: 13°C
Daggpunkt: 13°C
Luftfuktighet: 100%
Barometer: 1016.6 hPa
Summering: Mist
Clouds: Genommulet
Visibility: 3 km
Cloud details: Genommulet 61 m
2024/07/14 11:33 KWVI 141133Z AUTO 24004KT 2SM BR OVC002 13/13 A3002 RMK AO2 T01330133
 
KHAF - Half Moon Bay, California, USA
Distance from station: VNV 50km
Uppdaterad: 14/07/2024 13:35
Mist, Genommulet
Mist, Genommulet
 Vind från S
Vind: S 15 km/h
Temperatur: 13°C
Daggpunkt: 13°C
Luftfuktighet: 100%
Barometer: 1016.6 hPa
Summering: Mist
Clouds: Genommulet
Visibility: 4 km
Cloud details: Genommulet 122 m
2024/07/14 11:35 KHAF 141135Z AUTO 19008KT 2 1/2SM BR OVC004 13/13 A3002 RMK AO2
KHWD - Hayward, California, USA
Distance from station: N 44km
Uppdaterad: 14/07/2024 12:54
Genommulet
Genommulet
 Vind från NNV
Vind: NNV 13 km/h
Temperatur: 16°C
Daggpunkt: 13°C
Luftfuktighet: 83%
Barometer: 1014.9 hPa
Clouds: Genommulet
Visibility: 16 km
Cloud details: Genommulet 244 m
2024/07/14 10:54 KHWD 141054Z AUTO 34007KT 10SM OVC008 16/13 A2997 RMK AO2 SLP159 T01610128
KLVK - Livermore, California, USA
Distance from station: NNO 51km
Uppdaterad: 14/07/2024 12:53
Klart
Klart
 Vind från NV
Vind: NV 13 km/h
Temperatur: 16°C
Daggpunkt: 13°C
Luftfuktighet: 83%
Barometer: 1014.2 hPa
Clouds: Klart
Visibility: 16 km
2024/07/14 10:53 KLVK 141053Z AUTO 31007KT 10SM CLR 16/13 A2995 RMK AO2 SLP136 T01610128